Portada
METAR-TAF:

METAR-TAF

Aeroports :

Quibdó, Colòmbia

latitud: 05-43N, longitud: 076-37W, altitud: 53 m

Observació

L'informe es va fer fa 49 minuts, a les 16:00 UTC
Vent calma
Temperatura 24°C
Humitat 94%
Pressió 1012 hPa
Visibilitat: 8000 m
Cel ennuvolat a una alçada de 1000 ft
Cel cobert a una alçada de 7000 ft
xàfecs en les proximitats

METAR: SKUI 121600Z 00000KT 8000 VCSH BKN010 OVC070 24/23 A2987 REDZ RMK VCSH/SW

Hora: 11:49 (16:49 UTC)


TAF: manca

Observacions i pronòstics meteorològics de més de 4000 aeroports (METAR i TAF).

Les estacions disponibles són els punts grocs i vermells al mapa.

Posi el ratolí al punt desitjat per veure el nom de l'estació.

Feu clic per veure les observacions i els pronòstics meteorològics.

Per canviar el mapa: feu clic els botons verds amb una creu de color negre per apropar; al botó verd amb un guió per allunyar la imatge; o en les fletxes verdes per a mapes adjacents.


METAR-TAF: